createdAt,value
2023-03-12T00:01:45.411Z,61.84964053241804
2023-03-12T00:04:41.144Z,62.460008783143344
2023-03-12T00:07:39.541Z,61.956492931659525
2023-03-12T00:10:38.043Z,62.13296087659272
2023-03-12T00:13:34.658Z,62.41881048257041
2023-03-12T00:16:35.142Z,62.08323397805167
2023-03-12T00:19:30.809Z,61.71428616731032
2023-03-12T00:22:26.313Z,61.62718017735304
2023-03-12T00:25:23.839Z,62.220678847916766
2023-03-12T00:28:20.456Z,62.964503588312155
2023-03-12T00:31:18.024Z,63.41199557641377
2023-03-12T00:34:13.554Z,62.89512080787853
2023-03-12T00:37:09.053Z,63.12438004175282
2023-03-12T00:40:05.674Z,63.29315410752482
2023-03-12T00:43:01.228Z,62.960599997714844
2023-03-12T00:45:56.767Z,63.70611803757909
2023-03-12T00:48:52.293Z,64.11493447870912
2023-03-12T00:51:47.907Z,64.02353272584833
2023-03-12T00:54:43.476Z,64.00881196142525
2023-03-12T00:57:39.041Z,63.60664102403622
2023-03-12T01:00:37.612Z,63.49195662339402
2023-03-12T01:03:33.102Z,63.25831321448688
2023-03-12T01:06:28.704Z,63.42444327821181
2023-03-12T01:09:24.263Z,63.437876796051604
2023-03-12T01:12:19.803Z,63.68554178723239
2023-03-12T01:15:17.380Z,63.725892980696685
2023-03-12T01:18:12.969Z,63.587741574099105
2023-03-12T01:21:08.460Z,64.14615572853577
2023-03-12T01:24:06.060Z,63.95123085186719
2023-03-12T01:27:02.659Z,63.50079121326886
2023-03-12T01:29:59.188Z,63.50962600570511
2023-03-12T01:32:54.763Z,62.98238204673781
2023-03-12T01:35:50.448Z,63.72137154986812
2023-03-12T01:38:47.888Z,64.25742505450224
2023-03-12T01:41:44.405Z,64.37574609996285
2023-03-12T01:44:51.947Z,64.08341351624632
2023-03-12T01:47:47.503Z,64.44086141264269
2023-03-12T01:50:43.052Z,64.89869653583764
2023-03-12T01:53:43.624Z,65.08770544970466
2023-03-12T01:56:41.204Z,65.52688489299398
2023-03-12T01:59:43.731Z,65.77972871981257
2023-03-12T02:02:41.288Z,65.7217856581897
2023-03-12T02:05:44.784Z,65.29000667224271
2023-03-12T02:08:43.372Z,65.63156149553221
2023-03-12T02:11:38.905Z,65.46053181778476
2023-03-12T02:14:34.462Z,65.5352581779778
2023-03-12T02:20:47.541Z,65.61571099639949
2023-03-12T02:23:51.125Z,66.074010734614
2023-03-12T02:26:49.682Z,66.74366365240843
2023-03-12T02:29:46.178Z,67.30120061345961
2023-03-12T02:32:48.862Z,67.36838894494454
2023-03-12T02:35:46.300Z,66.92640869432579
2023-03-12T02:38:52.826Z,66.78922017460104
2023-03-12T02:41:53.417Z,66.56946040547463
2023-03-12T02:44:50.933Z,66.30366864664468
2023-03-12T02:47:46.473Z,64.88554157859143
2023-03-12T02:50:43.086Z,65.76210498769547
2023-03-12T02:53:38.624Z,66.14810017860255
2023-03-12T02:56:35.177Z,66.1771073451699
2023-03-12T02:59:30.738Z,68.52255560514081
2023-03-12T03:02:27.300Z,69.01242528830937
2023-03-12T03:05:22.889Z,67.20272440337546
2023-03-12T03:08:19.417Z,67.699659212231
2023-03-12T03:11:14.972Z,66.89105450978309
2023-03-12T03:14:10.498Z,67.41225454839922
2023-03-12T03:17:06.251Z,66.66127668266192
2023-03-12T03:20:01.669Z,68.08225890565471
2023-03-12T03:22:57.213Z,65.06517877058786
2023-03-12T03:25:55.811Z,64.92818969157742
2023-03-12T03:28:52.294Z,64.27928523120808
2023-03-12T03:31:48.848Z,65.53388685680716
2023-03-12T03:34:44.450Z,64.04191530844982
2023-03-12T03:37:40.061Z,64.88588921585851
2023-03-12T03:40:36.590Z,65.39068142288482
2023-03-12T03:43:32.122Z,66.37569067326211
2023-03-12T03:46:29.814Z,66.43154982904029
2023-03-12T03:49:25.273Z,67.68569463734643
2023-03-12T03:52:21.790Z,68.08622157023443
2023-03-12T03:55:17.379Z,68.00638831690384
2023-03-12T03:58:12.931Z,68.29832831406137
2023-03-12T04:01:08.535Z,69.04235999249546
2023-03-12T04:07:10.606Z,70.03758682972423
2023-03-12T04:10:07.177Z,65.66656797416229
2023-03-12T04:13:02.750Z,67.87838395338642
2023-03-12T04:15:58.316Z,67.30536326694381
2023-03-12T04:18:54.855Z,68.40275090230143
2023-03-12T04:21:50.372Z,68.70643718241132
2023-03-12T04:24:47.081Z,67.68131072002355
2023-03-12T04:27:42.544Z,69.09078008386531
2023-03-12T04:30:39.049Z,68.406870473947
2023-03-12T04:33:36.649Z,69.07624970399424
2023-03-12T04:36:32.185Z,69.91025072806748
2023-03-12T04:39:28.786Z,69.32636386253967
2023-03-12T04:42:24.281Z,69.28970664727929
2023-03-12T04:45:21.875Z,68.69931743052211
2023-03-12T04:48:17.391Z,69.86227680979815
2023-03-12T04:51:12.989Z,70.56581989794078
2023-03-12T04:54:08.565Z,70.1621640315033
2023-03-12T04:57:04.082Z,70.25116001756001
2023-03-12T05:03:05.366Z,69.20684632602783
2023-03-12T05:06:01.013Z,70.83710869963427
2023-03-12T05:08:56.410Z,65.94476087722471
2023-03-12T05:14:58.400Z,68.68289384127006
2023-03-12T05:17:54.912Z,68.68112103777547
2023-03-12T05:20:56.549Z,70.06878867770563
2023-03-12T05:23:53.104Z,66.69566236339362
2023-03-12T05:26:49.626Z,66.05956174970387
2023-03-12T05:32:50.879Z,67.4136815464969
2023-03-12T05:35:46.305Z,68.23773583721322
2023-03-12T05:38:42.875Z,67.46593890049314
2023-03-12T05:41:38.414Z,67.8562556736363
2023-03-12T05:44:35.016Z,65.11553467967124
2023-03-12T05:47:30.522Z,65.63010285277053
2023-03-12T05:50:26.087Z,64.39237311709985
2023-03-12T05:53:21.630Z,67.48809312074204
2023-03-12T05:59:23.774Z,64.04454038189607
2023-03-12T06:02:20.363Z,63.78862932658536
2023-03-12T06:05:16.878Z,65.89696022016302
2023-03-12T06:08:12.398Z,67.41168757688024
2023-03-12T06:11:09.993Z,65.81480824641304
2023-03-12T06:14:06.562Z,66.5851093820178
2023-03-12T06:17:02.147Z,66.22298036456853
2023-03-12T06:19:57.689Z,65.24720401069385
2023-03-12T06:22:53.376Z,65.85734308534678
2023-03-12T06:25:48.851Z,66.63333674103195
2023-03-12T06:28:45.356Z,66.50679458867168
2023-03-12T06:31:42.050Z,65.92707221853347
2023-03-12T06:34:37.486Z,63.337733661880975
2023-03-12T06:37:33.009Z,63.41854261698526
2023-03-12T06:40:28.640Z,61.973062450821146
2023-03-12T06:43:24.315Z,64.80618999816801
2023-03-12T06:46:22.005Z,63.465498455181475
2023-03-12T06:49:18.276Z,61.654339731807504
2023-03-12T06:52:13.795Z,59.59832753598286
2023-03-12T06:55:10.439Z,58.825600275925055
2023-03-12T06:58:05.977Z,57.84735669398887
2023-03-12T07:01:03.585Z,57.06562707377205
2023-03-12T07:03:59.084Z,55.75079235993676
2023-03-12T07:06:55.620Z,57.70953023697274
2023-03-12T07:09:52.169Z,55.433151236138826
2023-03-12T07:12:47.782Z,53.26245846184503
2023-03-12T07:15:45.354Z,55.514395310807025
2023-03-12T07:18:42.910Z,54.447375334132154
2023-03-12T07:21:39.403Z,54.57562502675665
2023-03-12T07:24:38.002Z,53.645404850369154
2023-03-12T07:30:41.078Z,51.46879654896319
2023-03-12T07:33:37.782Z,53.64950799478225
2023-03-12T07:36:35.368Z,50.69174876154245
2023-03-12T07:39:30.759Z,54.08573266181841
2023-03-12T07:45:31.900Z,49.725940523250614
2023-03-12T07:48:27.421Z,49.11464242019698
2023-03-12T07:51:23.949Z,47.887653929737766
2023-03-12T07:54:19.524Z,48.743407790770114
2023-03-12T07:57:15.179Z,50.65591601979248
2023-03-12T08:03:17.271Z,47.23523225278022
2023-03-12T08:06:12.839Z,49.438916037562954
2023-03-12T08:09:10.296Z,51.661587052213534
2023-03-12T08:12:07.009Z,49.20741100717508
2023-03-12T08:15:03.419Z,46.00663745842962
2023-03-12T08:17:59.991Z,49.75163648578956
2023-03-12T08:20:55.520Z,47.260583447288454
2023-03-12T08:23:52.132Z,47.23754877344177
2023-03-12T08:26:48.669Z,46.811380261391314
2023-03-12T08:29:44.237Z,46.08523467393716
2023-03-12T08:32:41.827Z,46.21442287234788
2023-03-12T08:35:38.362Z,45.95163783007141
2023-03-12T08:38:33.877Z,49.30699569543644
2023-03-12T08:41:30.483Z,47.176646303692806
2023-03-12T08:44:26.010Z,44.00116842313381
2023-03-12T08:47:21.556Z,45.255347057926066
2023-03-12T08:50:17.136Z,44.4569855847797
2023-03-12T08:53:12.722Z,44.88437798969022
2023-03-12T08:56:08.603Z,43.50047437304138
2023-03-12T08:59:03.780Z,43.374407703196695
2023-03-12T09:01:59.404Z,43.49352125234793
2023-03-12T09:04:54.961Z,43.64281246051505
2023-03-12T09:07:50.498Z,40.76458777688249
2023-03-12T09:10:48.043Z,43.839119544348726
2023-03-12T09:14:09.912Z,41.35983381712039
2023-03-12T09:16:45.185Z,38.9525744081096
2023-03-12T09:19:40.736Z,39.39191748188338
2023-03-12T09:22:37.343Z,38.95541186684225
2023-03-12T09:25:32.883Z,41.696765792914
2023-03-12T09:28:28.431Z,57.322112560601546
2023-03-12T09:34:29.490Z,39.12071645955185
2023-03-12T09:40:32.654Z,38.73478203991639
2023-03-12T09:43:34.152Z,38.70994547911251
2023-03-12T09:46:34.683Z,41.21220378951392
2023-03-12T09:49:38.291Z,39.276003271777626
2023-03-12T09:52:40.802Z,37.337947855672105
2023-03-12T09:55:41.342Z,37.24425363310924
2023-03-12T09:58:43.932Z,37.393107590811134
2023-03-12T10:01:49.427Z,38.03780013173066
2023-03-12T10:04:59.836Z,36.377342002912506
2023-03-12T10:08:17.406Z,35.46570779939642
2023-03-12T10:11:19.002Z,36.83084499904484
2023-03-12T10:14:27.540Z,39.397917586265024
2023-03-12T10:17:39.071Z,36.90247757686731
2023-03-12T10:20:51.557Z,38.43719854979469
2023-03-12T10:24:00.131Z,39.59621390351841
2023-03-12T10:26:58.630Z,37.13959521628047
2023-03-12T10:29:57.245Z,38.41753371096808
2023-03-12T10:32:59.787Z,40.573004105723875
2023-03-12T10:35:56.308Z,41.08158920281978
2023-03-12T10:38:55.848Z,43.06219860382951
2023-03-12T10:41:53.352Z,41.55837077325526
2023-03-12T10:44:53.933Z,40.10287470199459
2023-03-12T10:48:00.510Z,35.80007192189581
2023-03-12T10:51:02.996Z,34.89563105305239
2023-03-12T10:54:05.613Z,34.75866013684856
2023-03-12T10:57:01.139Z,35.87831563044504
2023-03-12T11:00:06.757Z,37.038878677975994
2023-03-12T11:03:06.242Z,38.146825007368186
2023-03-12T11:06:09.837Z,35.090471614494085
2023-03-12T11:09:17.137Z,29.574144829305858
2023-03-12T11:12:21.820Z,31.92173857516565
2023-03-12T11:15:20.412Z,31.126960671774935
2023-03-12T11:18:20.924Z,30.673570566465685
2023-03-12T11:21:18.500Z,35.39623732130115
2023-03-12T11:24:16.075Z,37.4865027660158
2023-03-12T11:27:25.601Z,37.39860552275774
2023-03-12T11:30:24.154Z,37.84998844612367
2023-03-12T11:33:20.717Z,36.5108122973304
2023-03-12T11:36:28.255Z,37.784892423273206
2023-03-12T11:39:33.729Z,37.28796768406283
2023-03-12T11:42:45.268Z,38.80395801416284
2023-03-12T11:45:52.787Z,37.497882283332416
2023-03-12T11:49:01.406Z,36.69154579524056
2023-03-12T11:52:08.860Z,31.953816192342778
2023-03-12T11:55:17.387Z,35.65702055110128
2023-03-12T11:58:24.974Z,32.088376419711544
2023-03-12T12:01:27.496Z,32.157526762372974
2023-03-12T12:04:40.025Z,31.75476930662676
2023-03-12T12:07:46.546Z,29.36013452401097
2023-03-12T12:10:53.552Z,28.914481611711143
2023-03-12T12:14:01.593Z,29.474209146230706
2023-03-12T12:17:13.110Z,27.786118383732735
2023-03-12T12:20:21.679Z,29.002322832553695
2023-03-12T12:23:28.150Z,28.64511694410287
2023-03-12T12:26:36.743Z,31.318512756878093
2023-03-12T12:29:51.262Z,31.597180949565963
2023-03-12T12:32:59.727Z,30.725918411066854
2023-03-12T12:36:00.383Z,32.38413599539383
2023-03-12T12:39:05.847Z,31.657554210959997
2023-03-12T12:42:07.502Z,30.24614379474108
2023-03-12T12:48:18.447Z,28.920562561548355
2023-03-12T12:51:17.002Z,26.33359649881646
2023-03-12T12:57:29.139Z,30.47134170196594
2023-03-12T13:00:36.598Z,28.796865214287017
2023-03-12T13:03:33.186Z,26.693293786690944
2023-03-12T13:06:37.370Z,26.603851067912764
2023-03-12T13:09:41.268Z,27.859905176029933
2023-03-12T13:15:48.684Z,28.553807457709947
2023-03-12T13:18:57.188Z,28.23847944694253
2023-03-12T13:22:03.691Z,25.535960082232155
2023-03-12T13:25:09.217Z,26.23386736832782
2023-03-12T13:28:21.752Z,26.351087417697446
2023-03-12T13:31:31.380Z,25.251065336639666
2023-03-12T13:34:30.826Z,24.78771053768068
2023-03-12T13:37:45.330Z,21.752946878670695
2023-03-12T13:40:50.901Z,23.27433839527821
2023-03-12T13:43:49.416Z,20.807071487407885
2023-03-12T13:46:54.924Z,24.591208992478933
2023-03-12T13:49:53.528Z,25.470962710209864
2023-03-12T13:53:01.054Z,23.860457100345393
2023-03-12T13:56:01.607Z,23.11293418725289
2023-03-12T13:59:00.163Z,20.754298411159205
2023-03-12T14:02:01.796Z,23.85927253608326
2023-03-12T14:08:24.715Z,20.535117675555902
2023-03-12T14:11:36.285Z,20.423249846583396
2023-03-12T14:14:47.816Z,17.379838737514326
2023-03-12T14:17:55.303Z,20.128234373559263
2023-03-12T14:20:54.930Z,20.069958195966976
2023-03-12T14:23:54.436Z,17.824015450833315
2023-03-12T14:26:53.091Z,18.309600766011265
2023-03-12T14:29:55.516Z,20.318307122426052
2023-03-12T14:32:55.109Z,19.42962673329251
2023-03-12T14:35:56.680Z,22.626766630485903
2023-03-12T14:39:00.192Z,19.779645505847355
2023-03-12T14:42:04.724Z,20.906140147584296
2023-03-12T14:45:07.234Z,18.861485119405152
2023-03-12T14:48:11.781Z,20.77382364710691
2023-03-12T14:51:15.363Z,20.40493723985028
2023-03-12T14:54:16.948Z,17.42136030738442
2023-03-12T14:57:20.441Z,17.546259391938705
2023-03-12T15:00:24.934Z,18.36066100740331
2023-03-12T15:03:21.524Z,16.571586163940097
2023-03-12T15:06:20.102Z,18.226946860292692
2023-03-12T15:09:17.606Z,18.41962633126292
2023-03-12T15:12:19.147Z,16.250037528344183
2023-03-12T15:15:19.723Z,15.135300283716894
2023-03-12T15:18:17.265Z,14.617878917754116
2023-03-12T15:21:12.806Z,16.053961777625204
2023-03-12T15:24:13.459Z,14.060906786478663
2023-03-12T15:27:17.920Z,15.12247400409434
2023-03-12T15:30:18.516Z,17.81987753335127
2023-03-12T15:33:19.021Z,17.795481173518166
2023-03-12T15:36:25.671Z,15.450551022967842
2023-03-12T15:39:26.137Z,14.52102113665133
2023-03-12T15:42:28.757Z,13.846407978699228
2023-03-12T15:45:29.221Z,13.847043905820119
2023-03-12T15:48:28.211Z,13.285768273261379
2023-03-12T15:51:28.284Z,13.667161362635335
2023-03-12T15:54:29.831Z,15.37520095769559
2023-03-12T15:57:26.438Z,14.525840338954872
2023-03-12T16:00:25.985Z,14.663229701432062
2023-03-12T16:03:24.509Z,14.987796872083136
2023-03-12T16:06:23.067Z,15.650949663109884
2023-03-12T16:09:24.728Z,16.61663669094047
2023-03-12T16:12:21.175Z,17.93165235915955
2023-03-12T16:15:20.742Z,16.955603956589243
2023-03-12T16:18:18.337Z,17.116335878219637
2023-03-12T16:21:14.853Z,18.605956039638478
2023-03-12T16:24:11.415Z,19.627667624411433
2023-03-12T16:27:14.015Z,22.709437604252763
2023-03-12T16:30:13.448Z,23.180574536570365
2023-03-12T16:33:13.035Z,24.472251735790003
2023-03-12T16:36:11.593Z,26.971138230823378
2023-03-12T16:39:07.106Z,28.280189025749706
2023-03-12T16:42:05.823Z,27.1829769142517
2023-03-12T16:45:04.298Z,27.45996701337802
2023-03-12T16:48:00.837Z,28.02201191815521
2023-03-12T16:50:57.845Z,28.690644200066995
2023-03-12T16:54:05.451Z,28.689459272937135
2023-03-12T17:00:08.047Z,30.366430737895456
2023-03-12T17:03:05.575Z,30.967473781032723
2023-03-12T17:06:03.145Z,30.953801194142446
2023-03-12T17:08:59.764Z,30.39143338821622
2023-03-12T17:11:57.729Z,31.673297411503768
2023-03-12T17:14:53.807Z,32.682633364022884
2023-03-12T17:17:50.425Z,32.62765416236469
2023-03-12T17:20:47.933Z,34.94059537015985
2023-03-12T17:23:45.447Z,34.32709106936068
2023-03-12T17:26:43.024Z,33.916447383833564
2023-03-12T17:29:39.549Z,34.28382957071308
2023-03-12T17:32:35.163Z,34.97518830374991
2023-03-12T17:35:35.747Z,36.04769639382397
2023-03-12T17:38:32.247Z,35.82603071400747
2023-03-12T17:41:27.759Z,36.33408343718298
2023-03-12T17:44:24.372Z,36.366643255081065
2023-03-12T17:47:19.977Z,37.696320186055665
2023-03-12T17:50:15.527Z,36.91363052088972
2023-03-12T17:53:12.060Z,40.154508342894204
2023-03-12T17:56:12.844Z,41.96510848072846
2023-03-12T17:59:08.161Z,40.124799742487234
2023-03-12T18:02:04.723Z,41.20339010666541
2023-03-12T18:05:00.403Z,41.091303133061174
2023-03-12T18:07:55.855Z,41.240260741361595
2023-03-12T18:10:51.407Z,40.70408588645058
2023-03-12T18:13:48.016Z,40.44626486687146
2023-03-12T18:16:43.510Z,42.432465888022215
2023-03-12T18:19:39.041Z,43.13150672440628
2023-03-12T18:22:34.664Z,42.54142104183632
2023-03-12T18:25:30.209Z,42.296353467503494
2023-03-12T18:28:25.750Z,43.92033923780015
2023-03-12T18:31:22.380Z,42.58548835820753
2023-03-12T18:34:17.884Z,43.59105480093461
2023-03-12T18:37:14.421Z,45.27825120791845
2023-03-12T18:40:11.005Z,44.871838429733
2023-03-12T18:43:06.526Z,44.621749748885286
2023-03-12T18:46:02.110Z,44.76837051906501
2023-03-12T18:49:03.705Z,45.331282865088674
2023-03-12T18:51:59.312Z,44.96354284737685
2023-03-12T18:54:54.798Z,45.19874088088264
2023-03-12T19:00:56.866Z,47.50733985244253
2023-03-12T19:03:53.513Z,47.69803414505611
2023-03-12T19:06:51.593Z,48.70309483970081
2023-03-12T19:09:47.539Z,45.95449004508661
2023-03-12T19:12:52.174Z,47.35739562304216
2023-03-12T19:15:44.725Z,45.23096910920178
2023-03-12T19:18:40.254Z,44.91941267347203
2023-03-12T19:21:35.804Z,47.60230972254573
2023-03-12T19:24:31.414Z,48.571745030312556
2023-03-12T19:27:29.150Z,47.84544920605055
2023-03-12T19:30:30.475Z,47.55438818720082
2023-03-12T19:33:28.038Z,45.58045018336075
2023-03-12T19:36:23.576Z,47.43378960357372
2023-03-12T19:39:21.475Z,46.788721839568986
2023-03-12T19:42:17.722Z,46.53019897017376
2023-03-12T19:45:14.282Z,46.233680722860335
2023-03-12T19:48:09.814Z,47.725524663077145
2023-03-12T19:51:06.373Z,46.39910074840612
2023-03-12T19:54:01.919Z,46.16455443631068
2023-03-12T19:56:57.448Z,46.70635956308353
2023-03-12T19:59:53.054Z,47.59760958877089
2023-03-12T20:02:48.810Z,45.13200651411263
2023-03-12T20:05:45.183Z,47.33567640436124
2023-03-12T20:08:40.757Z,46.31378398600054
2023-03-12T20:11:37.298Z,45.68219907169714
2023-03-12T20:14:32.843Z,47.21352369982318
2023-03-12T20:17:28.387Z,45.978885234281385
2023-03-12T20:20:23.957Z,45.5678256631783
2023-03-12T20:23:19.563Z,46.78228344066838
2023-03-12T20:26:15.130Z,48.031070876459715
2023-03-12T20:29:10.660Z,50.723159189650325
2023-03-12T20:32:06.292Z,49.92231175650681
2023-03-12T20:35:01.801Z,49.76058338042326
2023-03-12T20:37:59.330Z,48.912714682184216
2023-03-12T20:40:54.881Z,46.48073564202974
2023-03-12T20:43:54.463Z,48.60535323839994
2023-03-12T20:46:51.031Z,46.85861517171234
2023-03-12T20:49:46.588Z,51.86031952187382
2023-03-12T20:52:43.152Z,49.42180236100188
2023-03-12T20:55:39.713Z,49.07362347407341
2023-03-12T20:58:35.238Z,51.435253302459216
2023-03-12T21:01:31.874Z,49.09064416240628
2023-03-12T21:04:28.342Z,50.53639573881595
2023-03-12T21:07:23.955Z,49.63958019410831
2023-03-12T21:10:20.507Z,48.50344064163237
2023-03-12T21:13:16.004Z,49.19182396486645
2023-03-12T21:16:11.588Z,49.18702467414784
2023-03-12T21:19:07.178Z,48.98346509274337
2023-03-12T21:22:03.755Z,48.992876198572766
2023-03-12T21:24:59.324Z,47.91900463095433
2023-03-12T21:27:54.874Z,49.12576041149036
2023-03-12T21:30:51.459Z,50.47859666241075
2023-03-12T21:33:46.988Z,50.99506637053085
2023-03-12T21:36:43.568Z,54.38026811099742
2023-03-12T21:42:44.654Z,51.741060969669775
2023-03-12T21:45:42.223Z,50.390844864211516
2023-03-12T21:48:38.847Z,52.07574112680868
2023-03-12T21:51:36.791Z,49.27175508286813
2023-03-12T21:54:34.889Z,49.48009739987409
2023-03-12T21:57:30.470Z,48.62430020983769
2023-03-12T22:00:25.942Z,46.878718075162695
2023-03-12T22:03:21.581Z,51.04933263872703
2023-03-12T22:06:22.107Z,47.486107560935956
2023-03-12T22:09:19.615Z,48.79107496042139
2023-03-12T22:12:15.209Z,49.42271485735886
2023-03-12T22:15:10.780Z,49.787444084770044
2023-03-12T22:18:06.314Z,49.398565081266476
2023-03-12T22:21:02.901Z,52.800455674345585
2023-03-12T22:24:00.414Z,51.15200378733717
2023-03-12T22:26:56.998Z,50.06755674662549
2023-03-12T22:29:52.583Z,51.497266409349336
2023-03-12T22:32:48.260Z,52.18394682430569
2023-03-12T22:35:45.749Z,51.14044280975947
2023-03-12T22:38:42.270Z,52.17885569523194
2023-03-12T22:41:47.755Z,50.74333235002599
2023-03-12T22:44:43.331Z,49.04146463583018
2023-03-12T22:47:38.913Z,49.82235814502767
2023-03-12T22:50:34.474Z,49.27819761331044
2023-03-12T22:53:30.040Z,52.712259626704395
2023-03-12T22:56:30.620Z,53.49298202180573
2023-03-12T22:59:27.118Z,57.764179664221416
2023-03-12T23:02:22.640Z,53.389004617049494
2023-03-12T23:05:18.239Z,51.95746475994884
2023-03-12T23:08:13.832Z,52.949388314283915
2023-03-12T23:11:10.359Z,53.141567125359444
2023-03-12T23:14:08.868Z,53.59845523257803
2023-03-12T23:17:04.514Z,54.84001368020097
2023-03-12T23:20:04.067Z,53.71490020864599
2023-03-12T23:22:59.574Z,51.550180959395746
2023-03-12T23:25:56.172Z,51.220694378996434
2023-03-12T23:28:53.711Z,53.0906203557842
2023-03-12T23:31:49.321Z,52.92609490523872
2023-03-12T23:34:44.855Z,53.1369033121222
2023-03-12T23:37:40.359Z,55.32050305706751
2023-03-12T23:40:37.991Z,53.50373065992643
2023-03-12T23:43:33.496Z,54.323120722099084
2023-03-12T23:46:30.064Z,52.99973608995126
2023-03-12T23:49:26.616Z,53.327463082427954
2023-03-12T23:52:25.174Z,54.72016424531192
2023-03-12T23:55:20.761Z,53.75401577768413
2023-03-12T23:58:16.282Z,54.636447993800935
